createdAt,value
2023-02-23T00:00:28.796Z,57.35
2023-02-23T00:05:37.878Z,20.35
2023-02-23T00:10:41.257Z,13.60
2023-02-23T00:15:44.536Z,14.35
2023-02-23T00:20:57.844Z,12.70
2023-02-23T00:26:05.431Z,7.93
2023-02-23T00:31:08.951Z,9.63
2023-02-23T00:36:15.912Z,8.50
2023-02-23T00:41:20.846Z,5.38
2023-02-23T00:46:28.230Z,7.35
2023-02-23T00:51:33.061Z,8.63
2023-02-23T00:56:36.531Z,9.68
2023-02-23T01:01:41.922Z,10.38
2023-02-23T01:06:46.694Z,12.85
2023-02-23T01:11:50.005Z,13.82
2023-02-23T01:16:53.272Z,23.92
2023-02-23T01:21:57.951Z,19.35
2023-02-23T01:27:01.270Z,16.47
2023-02-23T01:32:05.525Z,12.07
2023-02-23T01:37:10.252Z,11.38
2023-02-23T01:42:14.790Z,9.60
2023-02-23T01:47:20.516Z,12.27
2023-02-23T01:52:25.304Z,6.97
2023-02-23T01:57:28.615Z,4.82
2023-02-23T02:02:34.113Z,6.07
2023-02-23T02:07:39.808Z,8.98
2023-02-23T02:12:46.318Z,6.95
2023-02-23T02:18:03.351Z,7.72
2023-02-23T02:23:44.364Z,6.93
2023-02-23T02:29:18.775Z,7.03
2023-02-23T02:34:59.632Z,5.72
2023-02-23T02:40:18.400Z,5.68
2023-02-23T02:45:28.299Z,6.83
2023-02-23T02:50:42.800Z,7.00
2023-02-23T02:55:49.296Z,6.57
2023-02-23T03:01:11.276Z,7.40
2023-02-23T03:06:33.516Z,10.13
2023-02-23T03:12:06.096Z,6.10
2023-02-23T03:17:38.426Z,7.78
2023-02-23T03:23:10.047Z,6.97
2023-02-23T03:28:36.694Z,7.68
2023-02-23T03:34:07.661Z,10.13
2023-02-23T03:39:36.836Z,9.38
2023-02-23T03:45:03.583Z,10.05
2023-02-23T03:50:28.077Z,9.07
2023-02-23T03:55:52.260Z,8.73
2023-02-23T04:01:18.120Z,10.02
2023-02-23T04:06:42.809Z,7.75
2023-02-23T04:12:09.500Z,9.07
2023-02-23T04:17:19.791Z,7.05
2023-02-23T04:22:24.586Z,9.98
2023-02-23T04:27:27.894Z,12.23
2023-02-23T04:32:32.797Z,7.05
2023-02-23T04:37:36.220Z,13.00
2023-02-23T04:42:40.393Z,12.52
2023-02-23T04:47:45.009Z,12.10
2023-02-23T04:52:48.831Z,16.95
2023-02-23T04:57:52.510Z,12.90
2023-02-23T05:02:57.161Z,15.88
2023-02-23T05:08:01.141Z,15.80
2023-02-23T05:13:04.616Z,13.25
2023-02-23T05:18:09.424Z,16.17
2023-02-23T05:23:12.922Z,14.20
2023-02-23T05:28:16.170Z,14.60
2023-02-23T05:33:21.936Z,11.75
2023-02-23T05:38:25.287Z,13.48
2023-02-23T05:43:28.805Z,14.20
2023-02-23T05:48:34.086Z,16.20
2023-02-23T05:53:38.069Z,13.75
2023-02-23T05:58:41.363Z,12.68
2023-02-23T06:03:46.564Z,13.43
2023-02-23T06:08:49.907Z,11.48
2023-02-23T06:13:53.400Z,12.15
2023-02-23T06:18:58.091Z,12.57
2023-02-23T06:24:01.629Z,12.23
2023-02-23T06:29:04.959Z,14.05
2023-02-23T06:34:10.306Z,10.85
2023-02-23T06:39:13.920Z,14.32
2023-02-23T06:44:17.194Z,17.23
2023-02-23T06:49:21.868Z,14.25
2023-02-23T06:54:26.556Z,13.90
2023-02-23T06:59:30.596Z,14.45
2023-02-23T07:04:35.244Z,17.27
2023-02-23T07:09:40.409Z,14.23
2023-02-23T07:14:43.617Z,15.60
2023-02-23T07:19:48.280Z,13.32
2023-02-23T07:24:51.518Z,17.40
2023-02-23T07:29:54.824Z,23.50
2023-02-23T07:34:59.754Z,16.13
2023-02-23T07:40:02.994Z,16.13
2023-02-23T07:45:07.584Z,19.38
2023-02-23T07:50:14.020Z,14.35
2023-02-23T07:55:17.260Z,13.52
2023-02-23T08:00:21.241Z,15.18
2023-02-23T08:05:26.616Z,15.45
2023-02-23T08:10:30.052Z,15.98
2023-02-23T08:15:33.286Z,18.50
2023-02-23T08:20:37.918Z,18.70
2023-02-23T08:25:41.247Z,16.90
2023-02-23T08:30:44.798Z,17.52
2023-02-23T08:35:49.487Z,16.48
2023-02-23T08:40:54.571Z,18.13
2023-02-23T08:45:57.827Z,16.30
2023-02-23T08:51:02.783Z,17.35
2023-02-23T08:56:08.290Z,15.77
2023-02-23T09:01:19.161Z,15.68
2023-02-23T09:06:26.450Z,16.90
2023-02-23T09:11:29.676Z,19.30
2023-02-23T09:16:33.491Z,16.90
2023-02-23T09:21:38.118Z,16.65
2023-02-23T09:26:45.634Z,16.98
2023-02-23T09:31:51.406Z,17.08
2023-02-23T09:36:56.514Z,18.05
2023-02-23T09:42:14.936Z,19.77
2023-02-23T09:47:33.495Z,20.97
2023-02-23T09:52:44.942Z,20.67
2023-02-23T09:57:49.881Z,18.40
2023-02-23T10:03:11.677Z,19.40
2023-02-23T10:08:25.220Z,16.90
2023-02-23T10:13:38.468Z,16.88
2023-02-23T10:18:47.807Z,22.17
2023-02-23T10:23:58.791Z,16.58
2023-02-23T10:29:02.079Z,17.88
2023-02-23T10:34:11.500Z,18.80
2023-02-23T10:39:16.157Z,17.38
2023-02-23T10:44:22.912Z,19.80
2023-02-23T10:49:31.711Z,21.92
2023-02-23T10:54:44.731Z,16.58
2023-02-23T11:00:02.794Z,18.40
2023-02-23T11:05:07.702Z,16.75
2023-02-23T11:10:27.815Z,24.55
2023-02-23T11:15:49.274Z,19.17
2023-02-23T11:20:54.715Z,20.83
2023-02-23T11:26:02.075Z,17.40
2023-02-23T11:31:15.588Z,23.23
2023-02-23T11:36:28.182Z,22.23
2023-02-23T11:41:35.345Z,21.50
2023-02-23T11:46:40.061Z,19.48
2023-02-23T11:51:49.818Z,16.95
2023-02-23T11:56:55.458Z,20.73
2023-02-23T12:02:06.056Z,23.80
2023-02-23T12:07:29.666Z,24.13
2023-02-23T12:12:49.407Z,23.98
2023-02-23T12:17:56.612Z,23.38
2023-02-23T12:23:03.931Z,23.98
2023-02-23T12:28:19.374Z,26.42
2023-02-23T12:33:30.242Z,24.48
2023-02-23T12:38:45.313Z,23.63
2023-02-23T12:43:55.103Z,26.90
2023-02-23T12:49:07.821Z,24.07
2023-02-23T12:54:13.841Z,24.40
2023-02-23T12:59:41.744Z,25.53
2023-02-23T13:05:04.985Z,29.58
2023-02-23T13:10:17.098Z,22.40
2023-02-23T13:15:28.836Z,23.77
2023-02-23T13:20:38.046Z,29.40
2023-02-23T13:25:49.323Z,26.98
2023-02-23T13:30:55.279Z,26.83
2023-02-23T13:35:59.830Z,27.42
2023-02-23T13:41:14.288Z,27.38
2023-02-23T13:46:29.708Z,25.52
2023-02-23T13:51:38.720Z,25.60
2023-02-23T13:56:46.070Z,25.93
2023-02-23T14:01:53.535Z,27.23
2023-02-23T14:07:02.141Z,27.30
2023-02-23T14:12:19.206Z,27.92
2023-02-23T14:17:44.291Z,26.13
2023-02-23T14:23:15.226Z,24.90
2023-02-23T14:28:27.570Z,23.73
2023-02-23T14:33:52.673Z,21.88
2023-02-23T14:39:01.687Z,23.40
2023-02-23T14:44:17.164Z,24.63
2023-02-23T14:49:32.588Z,22.73
2023-02-23T14:54:37.705Z,24.50
2023-02-23T14:59:42.763Z,24.60
2023-02-23T15:04:47.431Z,24.35
2023-02-23T15:09:52.210Z,24.20
2023-02-23T15:15:00.132Z,23.97
2023-02-23T15:20:16.552Z,25.77
2023-02-23T15:25:26.265Z,27.75
2023-02-23T15:30:31.795Z,30.48
2023-02-23T15:35:42.472Z,27.08
2023-02-23T15:40:46.394Z,30.73
2023-02-23T15:45:52.446Z,31.23
2023-02-23T15:50:59.127Z,27.80
2023-02-23T15:56:05.834Z,31.43
2023-02-23T16:01:13.149Z,31.30
2023-02-23T16:06:32.721Z,30.23
2023-02-23T16:11:37.834Z,26.40
2023-02-23T16:16:42.954Z,27.60
2023-02-23T16:21:53.914Z,27.73
2023-02-23T16:27:00.123Z,29.30
2023-02-23T16:32:04.849Z,30.45
2023-02-23T16:37:18.952Z,30.13
2023-02-23T16:42:31.496Z,28.50
2023-02-23T16:47:37.774Z,27.85
2023-02-23T16:52:42.813Z,40.17
2023-02-23T16:57:49.881Z,30.47
2023-02-23T17:02:53.272Z,28.20
2023-02-23T17:07:59.003Z,30.77
2023-02-23T17:13:05.123Z,29.73
2023-02-23T17:18:10.766Z,28.02
2023-02-23T17:23:15.524Z,26.77
2023-02-23T17:28:18.864Z,35.63
2023-02-23T17:33:22.126Z,40.75
2023-02-23T17:38:37.455Z,24.70
2023-02-23T17:43:41.050Z,15.60
2023-02-23T17:48:46.819Z,15.75
2023-02-23T17:53:51.480Z,18.35
2023-02-23T17:58:54.765Z,14.83
2023-02-23T18:03:58.667Z,12.53
2023-02-23T18:09:05.940Z,17.95
2023-02-23T18:14:09.614Z,16.30
2023-02-23T18:19:13.154Z,16.50
2023-02-23T18:24:18.008Z,23.77
2023-02-23T18:29:21.208Z,21.67
2023-02-23T18:34:25.414Z,25.40
2023-02-23T18:39:31.200Z,28.02
2023-02-23T18:44:35.349Z,30.43
2023-02-23T18:49:38.697Z,28.70
2023-02-23T18:54:43.274Z,26.90
2023-02-23T18:59:47.395Z,25.70
2023-02-23T19:04:50.678Z,32.33
2023-02-23T19:09:55.829Z,29.80
2023-02-23T19:14:59.186Z,28.33
2023-02-23T19:20:02.457Z,25.40
2023-02-23T19:25:11.743Z,28.52
2023-02-23T19:30:15.748Z,24.45
2023-02-23T19:35:21.129Z,19.95
2023-02-23T19:40:28.909Z,17.23
2023-02-23T19:45:34.326Z,21.30
2023-02-23T19:50:38.471Z,18.80
2023-02-23T19:55:49.587Z,21.13
2023-02-23T20:00:54.325Z,18.37
2023-02-23T20:05:58.660Z,14.47
2023-02-23T20:11:07.787Z,13.70
2023-02-23T20:16:14.278Z,11.27
2023-02-23T20:21:19.541Z,10.23
2023-02-23T20:26:26.946Z,9.73
2023-02-23T20:31:37.513Z,8.30
2023-02-23T20:36:41.187Z,8.50
2023-02-23T20:41:47.828Z,10.00
2023-02-23T20:46:51.424Z,14.35
2023-02-23T20:51:55.190Z,13.68
2023-02-23T20:57:07.718Z,17.20
2023-02-23T21:02:14.022Z,14.48
2023-02-23T21:07:17.804Z,16.52
2023-02-23T21:12:23.133Z,14.77
2023-02-23T21:17:26.391Z,12.73
2023-02-23T21:22:29.873Z,12.13
2023-02-23T21:27:34.529Z,13.20
2023-02-23T21:32:42.259Z,13.98
2023-02-23T21:37:46.306Z,12.68
2023-02-23T21:42:51.881Z,11.85
2023-02-23T21:47:55.274Z,11.45
2023-02-23T21:52:58.933Z,11.38
2023-02-23T21:58:03.675Z,11.80
2023-02-23T22:03:08.264Z,13.75
2023-02-23T22:08:15.898Z,10.52
2023-02-23T22:13:20.799Z,12.30
2023-02-23T22:18:25.320Z,10.48
2023-02-23T22:23:28.893Z,12.07
2023-02-23T22:28:35.461Z,13.88
2023-02-23T22:33:41.629Z,14.75
2023-02-23T22:38:45.616Z,12.90
2023-02-23T22:43:50.577Z,11.55
2023-02-23T22:48:53.892Z,11.55
2023-02-23T22:53:57.175Z,10.13
2023-02-23T22:59:06.400Z,10.82
2023-02-23T23:04:11.152Z,13.07
2023-02-23T23:09:16.533Z,9.50
2023-02-23T23:14:21.238Z,13.00
2023-02-23T23:19:25.319Z,14.85
2023-02-23T23:24:28.646Z,9.85
2023-02-23T23:29:33.294Z,13.80
2023-02-23T23:34:36.631Z,11.25
2023-02-23T23:39:40.082Z,13.13
2023-02-23T23:44:45.330Z,12.25
2023-02-23T23:49:48.605Z,14.20
2023-02-23T23:54:51.913Z,14.13
2023-02-23T23:59:56.542Z,13.38
